createdAt,value
2023-02-05T00:00:47.300Z,2.70
2023-02-05T00:03:14.305Z,2.70
2023-02-05T00:05:41.218Z,2.70
2023-02-05T00:08:08.327Z,2.70
2023-02-05T00:10:35.319Z,2.70
2023-02-05T00:13:02.555Z,2.70
2023-02-05T00:15:29.682Z,2.70
2023-02-05T00:17:56.628Z,2.70
2023-02-05T00:20:23.574Z,2.80
2023-02-05T00:22:50.521Z,2.70
2023-02-05T00:25:17.506Z,2.70
2023-02-05T00:27:44.422Z,2.70
2023-02-05T00:30:11.991Z,2.70
2023-02-05T00:32:38.928Z,2.70
2023-02-05T00:35:06.080Z,2.70
2023-02-05T00:37:33.129Z,2.70
2023-02-05T00:40:00.063Z,2.60
2023-02-05T00:42:27.003Z,2.60
2023-02-05T00:44:53.953Z,2.60
2023-02-05T00:47:20.922Z,2.60
2023-02-05T00:49:47.874Z,2.70
2023-02-05T00:52:15.119Z,2.60
2023-02-05T00:54:42.082Z,2.70
2023-02-05T00:57:10.139Z,2.70
2023-02-05T00:59:37.144Z,2.70
2023-02-05T01:02:04.296Z,2.70
2023-02-05T01:04:31.213Z,2.70
2023-02-05T01:06:58.309Z,2.70
2023-02-05T01:09:25.308Z,2.70
2023-02-05T01:11:52.199Z,2.70
2023-02-05T01:14:19.153Z,2.70
2023-02-05T01:16:46.101Z,2.80
2023-02-05T01:19:13.064Z,2.80
2023-02-05T01:21:40.012Z,2.80
2023-02-05T01:24:06.987Z,2.70
2023-02-05T01:26:34.012Z,2.80
2023-02-05T01:29:00.989Z,2.80
2023-02-05T01:31:29.730Z,2.80
2023-02-05T01:33:56.824Z,2.80
2023-02-05T01:36:23.764Z,2.90
2023-02-05T01:38:52.817Z,2.90
2023-02-05T01:41:19.873Z,2.90
2023-02-05T01:44:07.432Z,2.90
2023-02-05T01:46:36.254Z,2.90
2023-02-05T01:49:04.652Z,2.90
2023-02-05T01:51:33.650Z,2.90
2023-02-05T01:54:01.282Z,2.90
2023-02-05T01:56:38.439Z,2.80
2023-02-05T01:59:14.332Z,2.80
2023-02-05T02:01:43.269Z,2.80
2023-02-05T02:04:13.021Z,2.80
2023-02-05T02:06:39.971Z,2.90
2023-02-05T02:09:08.038Z,2.80
2023-02-05T02:11:39.264Z,2.90
2023-02-05T02:14:09.922Z,2.80
2023-02-05T02:16:39.844Z,2.70
2023-02-05T02:19:17.774Z,2.70
2023-02-05T02:21:50.657Z,2.70
2023-02-05T02:24:53.614Z,2.70
2023-02-05T02:27:48.093Z,2.80
2023-02-05T02:30:26.715Z,2.70
2023-02-05T02:33:05.336Z,2.70
2023-02-05T02:35:54.038Z,2.70
2023-02-05T02:38:44.702Z,2.70
2023-02-05T02:41:18.760Z,2.70
2023-02-05T02:43:52.635Z,2.60
2023-02-05T02:46:30.933Z,2.60
2023-02-05T02:49:03.189Z,2.60
2023-02-05T02:51:32.470Z,2.50
2023-02-05T02:54:03.988Z,2.60
2023-02-05T02:56:33.227Z,2.60
2023-02-05T02:59:06.580Z,2.60
2023-02-05T03:01:36.477Z,2.70
2023-02-05T03:04:09.925Z,2.70
2023-02-05T03:06:39.813Z,2.70
2023-02-05T03:09:18.036Z,2.80
2023-02-05T03:11:44.993Z,2.80
2023-02-05T03:14:11.908Z,2.70
2023-02-05T03:16:39.070Z,2.80
2023-02-05T03:19:06.656Z,2.80
2023-02-05T03:21:41.372Z,2.80
2023-02-05T03:24:09.460Z,2.70
2023-02-05T03:26:38.353Z,2.60
2023-02-05T03:29:12.737Z,2.50
2023-02-05T03:32:08.675Z,2.60
2023-02-05T03:35:02.017Z,2.50
2023-02-05T03:37:43.788Z,2.50
2023-02-05T03:40:31.425Z,2.50
2023-02-05T03:43:25.109Z,2.50
2023-02-05T03:46:18.636Z,2.50
2023-02-05T03:49:16.487Z,2.40
2023-02-05T03:51:56.531Z,2.50
2023-02-05T03:54:32.765Z,2.60
2023-02-05T03:57:52.459Z,2.60
2023-02-05T04:00:19.814Z,2.60
2023-02-05T04:02:47.066Z,2.50
2023-02-05T04:05:14.051Z,2.50
2023-02-05T04:07:41.135Z,2.50
2023-02-05T04:10:08.433Z,2.50
2023-02-05T04:12:35.430Z,2.40
2023-02-05T04:15:03.335Z,2.40
2023-02-05T04:17:30.227Z,2.30
2023-02-05T04:19:57.176Z,2.30
2023-02-05T04:22:24.099Z,2.30
2023-02-05T04:24:51.044Z,2.20
2023-02-05T04:27:18.050Z,2.20
2023-02-05T04:29:45.175Z,2.20
2023-02-05T04:32:12.104Z,2.10
2023-02-05T04:34:39.062Z,2.10
2023-02-05T04:37:06.035Z,2.10
2023-02-05T04:39:32.931Z,2.20
2023-02-05T04:42:01.876Z,2.20
2023-02-05T04:44:28.889Z,2.20
2023-02-05T04:46:55.793Z,2.20
2023-02-05T04:49:22.832Z,2.30
2023-02-05T04:51:49.732Z,2.30
2023-02-05T04:54:16.661Z,2.30
2023-02-05T04:56:43.661Z,2.30
2023-02-05T04:59:10.624Z,2.20
2023-02-05T05:01:37.604Z,2.20
2023-02-05T05:04:04.577Z,2.30
2023-02-05T05:06:31.521Z,2.30
2023-02-05T05:08:58.436Z,2.30
2023-02-05T05:11:25.945Z,2.30
2023-02-05T05:13:52.906Z,2.40
2023-02-05T05:16:20.243Z,2.40
2023-02-05T05:18:47.359Z,2.50
2023-02-05T05:21:14.376Z,2.60
2023-02-05T05:23:41.308Z,2.70
2023-02-05T05:26:11.821Z,2.70
2023-02-05T05:28:39.397Z,2.70
2023-02-05T05:31:09.825Z,2.70
2023-02-05T05:33:37.441Z,2.80
2023-02-05T05:36:05.221Z,2.80
2023-02-05T05:38:32.311Z,2.80
2023-02-05T05:41:17.931Z,2.80
2023-02-05T05:43:47.669Z,2.80
2023-02-05T05:46:32.648Z,2.80
2023-02-05T05:49:01.051Z,2.70
2023-02-05T05:51:28.800Z,2.70
2023-02-05T05:53:56.626Z,2.60
2023-02-05T05:56:23.828Z,2.60
2023-02-05T05:58:51.218Z,2.60
2023-02-05T06:01:20.482Z,2.60
2023-02-05T06:03:47.437Z,2.60
2023-02-05T06:06:14.403Z,2.60
2023-02-05T06:08:41.325Z,2.60
2023-02-05T06:11:08.286Z,2.60
2023-02-05T06:13:35.502Z,2.60
2023-02-05T06:16:02.985Z,2.60
2023-02-05T06:18:30.541Z,2.50
2023-02-05T06:20:57.518Z,2.50
2023-02-05T06:23:24.432Z,2.50
2023-02-05T06:25:51.556Z,2.50
2023-02-05T06:28:18.646Z,2.40
2023-02-05T06:30:45.744Z,2.30
2023-02-05T06:33:13.072Z,2.40
2023-02-05T06:35:40.820Z,2.40
2023-02-05T06:38:08.302Z,2.30
2023-02-05T06:40:35.419Z,2.30
2023-02-05T06:43:03.258Z,2.20
2023-02-05T06:45:30.231Z,2.20
2023-02-05T06:47:57.702Z,2.20
2023-02-05T06:50:24.932Z,2.20
2023-02-05T06:52:52.247Z,2.20
2023-02-05T06:55:19.508Z,2.20
2023-02-05T06:57:46.765Z,2.20
2023-02-05T07:00:14.400Z,2.30
2023-02-05T07:02:41.518Z,2.40
2023-02-05T07:05:09.394Z,2.40
2023-02-05T07:07:36.640Z,2.50
2023-02-05T07:10:04.496Z,2.40
2023-02-05T07:12:31.619Z,2.30
2023-02-05T07:14:58.714Z,2.20
2023-02-05T07:17:26.036Z,2.20
2023-02-05T07:19:53.365Z,2.20
2023-02-05T07:22:20.433Z,2.20
2023-02-05T07:24:47.406Z,2.30
2023-02-05T07:27:14.615Z,2.40
2023-02-05T07:29:44.960Z,2.40
2023-02-05T07:32:12.396Z,2.50
2023-02-05T07:34:39.437Z,2.50
2023-02-05T07:37:06.510Z,2.40
2023-02-05T07:39:33.741Z,2.40
2023-02-05T07:42:01.182Z,2.30
2023-02-05T07:44:28.216Z,2.30
2023-02-05T07:46:55.441Z,2.30
2023-02-05T07:49:22.846Z,2.40
2023-02-05T07:51:49.774Z,2.40
2023-02-05T07:54:17.052Z,2.40
2023-02-05T07:56:44.078Z,2.20
2023-02-05T07:59:13.478Z,2.20
2023-02-05T08:01:40.424Z,2.20
2023-02-05T08:04:07.522Z,2.20
2023-02-05T08:06:34.909Z,2.20
2023-02-05T08:09:01.912Z,2.30
2023-02-05T08:11:29.899Z,2.30
2023-02-05T08:13:58.128Z,2.30
2023-02-05T08:16:25.643Z,2.20
2023-02-05T08:18:52.724Z,2.20
2023-02-05T08:21:22.149Z,2.30
2023-02-05T08:23:49.804Z,2.40
2023-02-05T08:26:17.704Z,2.30
2023-02-05T08:28:46.092Z,2.30
2023-02-05T08:31:17.104Z,2.30
2023-02-05T08:33:44.631Z,2.20
2023-02-05T08:36:12.156Z,2.20
2023-02-05T08:38:39.098Z,2.20
2023-02-05T08:41:13.885Z,2.30
2023-02-05T08:43:47.325Z,2.40
2023-02-05T08:46:18.746Z,2.50
2023-02-05T08:48:46.802Z,2.50
2023-02-05T08:51:15.155Z,2.50
2023-02-05T08:53:42.212Z,2.60
2023-02-05T08:56:14.260Z,2.60
2023-02-05T08:58:41.747Z,2.50
2023-02-05T09:01:17.364Z,2.50
2023-02-05T09:03:45.628Z,2.60
2023-02-05T09:06:15.506Z,2.60
2023-02-05T09:08:42.657Z,2.70
2023-02-05T09:11:09.664Z,2.60
2023-02-05T09:13:40.415Z,2.70
2023-02-05T09:16:11.337Z,2.70
2023-02-05T09:18:38.835Z,2.70
2023-02-05T09:21:10.680Z,2.70
2023-02-05T09:23:38.434Z,2.80
2023-02-05T09:26:05.914Z,2.70
2023-02-05T09:28:33.041Z,2.70
2023-02-05T09:31:08.707Z,2.70
2023-02-05T09:33:36.006Z,2.70
2023-02-05T09:36:14.766Z,2.70
2023-02-05T09:38:43.720Z,2.80
2023-02-05T09:41:13.344Z,2.90
2023-02-05T09:43:46.363Z,3.00
2023-02-05T09:46:35.022Z,3.00
2023-02-05T09:49:13.965Z,3.10
2023-02-05T09:51:49.490Z,3.30
2023-02-05T09:54:26.277Z,3.40
2023-02-05T09:56:58.058Z,3.60
2023-02-05T09:59:28.000Z,3.70
2023-02-05T10:02:13.183Z,3.60
2023-02-05T10:04:40.244Z,3.70
2023-02-05T10:07:58.111Z,3.90
2023-02-05T10:10:48.560Z,4.00
2023-02-05T10:13:37.698Z,4.00
2023-02-05T10:16:26.207Z,4.20
2023-02-05T10:19:18.105Z,4.30
2023-02-05T10:22:00.279Z,4.30
2023-02-05T10:25:01.084Z,4.30
2023-02-05T10:28:00.162Z,4.20
2023-02-05T10:30:56.879Z,4.00
2023-02-05T10:33:44.722Z,4.10
2023-02-05T10:36:12.693Z,4.10
2023-02-05T10:38:47.830Z,4.10
2023-02-05T10:41:21.183Z,4.00
2023-02-05T10:44:12.261Z,4.10
2023-02-05T10:46:41.004Z,4.00
2023-02-05T10:49:20.558Z,4.10
2023-02-05T10:51:47.521Z,4.00
2023-02-05T10:54:34.781Z,4.00
2023-02-05T10:57:02.197Z,4.10
2023-02-05T10:59:32.501Z,4.10
2023-02-05T11:02:06.151Z,4.20
2023-02-05T11:04:59.466Z,4.30
2023-02-05T11:07:33.258Z,4.30
2023-02-05T11:10:17.415Z,4.40
2023-02-05T11:12:48.650Z,4.40
2023-02-05T11:15:24.710Z,4.50
2023-02-05T11:18:01.734Z,4.60
2023-02-05T11:20:40.468Z,4.60
2023-02-05T11:23:13.379Z,4.70
2023-02-05T11:25:53.285Z,4.80
2023-02-05T11:28:32.007Z,4.90
2023-02-05T11:31:19.686Z,5.00
2023-02-05T11:33:48.033Z,5.10
2023-02-05T11:36:25.654Z,5.30
2023-02-05T11:38:56.514Z,6.10
2023-02-05T11:41:33.241Z,6.70
2023-02-05T11:44:03.094Z,7.00
2023-02-05T11:46:42.050Z,7.80
2023-02-05T11:49:21.331Z,8.30
2023-02-05T11:51:52.739Z,8.70
2023-02-05T11:54:29.923Z,8.40
2023-02-05T11:57:21.636Z,8.30
2023-02-05T12:00:00.173Z,8.20
2023-02-05T12:02:29.918Z,8.40
2023-02-05T12:05:20.157Z,8.40
2023-02-05T12:08:13.766Z,8.10
2023-02-05T12:10:54.939Z,8.10
2023-02-05T12:13:30.690Z,7.90
2023-02-05T12:16:26.281Z,7.60
2023-02-05T12:19:07.884Z,7.70
2023-02-05T12:22:07.880Z,7.50
2023-02-05T12:24:50.029Z,7.40
2023-02-05T12:27:41.347Z,7.10
2023-02-05T12:30:23.442Z,6.90
2023-02-05T12:33:09.145Z,7.20
2023-02-05T12:35:50.927Z,7.20
2023-02-05T12:38:32.431Z,7.30
2023-02-05T12:41:08.272Z,7.60
2023-02-05T12:44:01.667Z,7.70
2023-02-05T12:47:12.862Z,7.80
2023-02-05T12:49:54.650Z,7.70
2023-02-05T12:53:02.795Z,7.60
2023-02-05T12:55:54.065Z,7.50
2023-02-05T12:58:21.953Z,7.40
2023-02-05T13:00:53.031Z,7.40
2023-02-05T13:03:27.302Z,7.50
2023-02-05T13:06:02.194Z,7.70
2023-02-05T13:08:51.441Z,8.00
2023-02-05T13:11:23.040Z,8.20
2023-02-05T13:14:08.271Z,8.30
2023-02-05T13:16:48.990Z,8.60
2023-02-05T13:19:25.292Z,8.90
2023-02-05T13:22:17.693Z,9.00
2023-02-05T13:25:11.558Z,8.90
2023-02-05T13:28:05.279Z,8.50
2023-02-05T13:30:42.488Z,8.30
2023-02-05T13:33:10.102Z,7.90
2023-02-05T13:36:02.024Z,7.80
2023-02-05T13:39:07.739Z,7.70
2023-02-05T13:41:43.307Z,7.60
2023-02-05T13:44:47.803Z,7.50
2023-02-05T13:47:39.014Z,7.40
2023-02-05T13:50:33.738Z,7.30
2023-02-05T13:53:53.378Z,7.30
2023-02-05T13:56:24.377Z,7.20
2023-02-05T13:59:25.231Z,7.20
2023-02-05T14:01:56.275Z,7.10
2023-02-05T14:04:54.088Z,7.10
2023-02-05T14:07:54.388Z,7.10
2023-02-05T14:10:26.475Z,7.10
2023-02-05T14:12:54.582Z,7.00
2023-02-05T14:15:23.402Z,7.00
2023-02-05T14:17:50.323Z,6.90
2023-02-05T14:20:26.366Z,6.90
2023-02-05T14:23:03.480Z,6.90
2023-02-05T14:25:36.989Z,6.80
2023-02-05T14:28:16.189Z,6.80
2023-02-05T14:30:46.045Z,6.80
2023-02-05T14:33:36.404Z,6.90
2023-02-05T14:36:20.902Z,6.80
2023-02-05T14:39:14.223Z,6.80
2023-02-05T14:41:41.237Z,6.80
2023-02-05T14:44:36.363Z,6.80
2023-02-05T14:47:25.909Z,6.80
2023-02-05T14:50:02.847Z,6.80
2023-02-05T14:52:47.774Z,6.80
2023-02-05T14:55:14.685Z,6.80
2023-02-05T14:57:48.022Z,6.80
2023-02-05T15:00:32.004Z,6.70
2023-02-05T15:03:05.224Z,6.70
2023-02-05T15:05:45.138Z,6.70
2023-02-05T15:08:15.337Z,6.70
2023-02-05T15:11:15.071Z,6.60
2023-02-05T15:13:42.978Z,6.60
2023-02-05T15:16:19.872Z,6.60
2023-02-05T15:19:14.048Z,6.50
2023-02-05T15:21:46.174Z,6.50
2023-02-05T15:24:22.402Z,6.50
2023-02-05T15:27:05.976Z,6.50
2023-02-05T15:29:43.050Z,6.50
2023-02-05T15:32:36.332Z,6.50
2023-02-05T15:35:07.380Z,6.50
2023-02-05T15:37:41.106Z,6.40
2023-02-05T15:40:20.224Z,6.40
2023-02-05T15:42:54.462Z,6.40
2023-02-05T15:45:24.563Z,6.30
2023-02-05T15:48:28.218Z,6.30
2023-02-05T15:51:01.096Z,6.30
2023-02-05T15:53:43.046Z,6.30
2023-02-05T15:56:35.552Z,6.30
2023-02-05T15:59:06.325Z,6.30
2023-02-05T16:01:41.998Z,6.30
2023-02-05T16:04:27.721Z,6.30
2023-02-05T16:06:55.134Z,6.40
2023-02-05T16:09:25.169Z,6.40
2023-02-05T16:11:52.541Z,6.40
2023-02-05T16:14:22.143Z,6.40
2023-02-05T16:17:04.525Z,6.30
2023-02-05T16:19:56.787Z,6.30
2023-02-05T16:22:36.181Z,6.30
2023-02-05T16:25:12.840Z,6.30
2023-02-05T16:27:48.576Z,6.30
2023-02-05T16:30:28.958Z,6.20
2023-02-05T16:32:57.433Z,6.10
2023-02-05T16:35:39.965Z,6.00
2023-02-05T16:38:18.784Z,6.00
2023-02-05T16:40:49.134Z,6.00
2023-02-05T16:43:35.597Z,6.00
2023-02-05T16:46:08.962Z,6.00
2023-02-05T16:48:48.140Z,6.00
2023-02-05T16:51:38.295Z,6.20
2023-02-05T16:54:11.168Z,6.30
2023-02-05T16:56:45.946Z,6.30
2023-02-05T16:59:25.103Z,6.20
2023-02-05T17:01:53.406Z,6.20
2023-02-05T17:04:37.712Z,6.20
2023-02-05T17:07:18.662Z,6.10
2023-02-05T17:09:45.719Z,6.10
2023-02-05T17:12:33.443Z,6.00
2023-02-05T17:15:03.471Z,6.00
2023-02-05T17:17:32.177Z,6.00
2023-02-05T17:20:20.187Z,5.90
2023-02-05T17:23:08.318Z,5.90
2023-02-05T17:26:04.783Z,5.90
2023-02-05T17:28:34.451Z,5.90
2023-02-05T17:31:02.533Z,5.90
2023-02-05T17:33:29.712Z,5.90
2023-02-05T17:35:56.772Z,5.80
2023-02-05T17:38:23.770Z,5.80
2023-02-05T17:41:10.857Z,5.80
2023-02-05T17:43:39.252Z,5.80
2023-02-05T17:46:15.769Z,5.80
2023-02-05T17:48:44.688Z,5.90
2023-02-05T17:51:21.016Z,5.80
2023-02-05T17:53:48.970Z,5.90
2023-02-05T17:56:16.225Z,5.90
2023-02-05T17:58:43.244Z,5.90
2023-02-05T18:01:11.959Z,5.90
2023-02-05T18:03:39.456Z,5.90
2023-02-05T18:06:06.941Z,5.90
2023-02-05T18:08:36.240Z,5.80
2023-02-05T18:11:04.201Z,5.90
2023-02-05T18:13:31.137Z,5.90
2023-02-05T18:16:03.394Z,5.90
2023-02-05T18:18:32.555Z,5.80
2023-02-05T18:20:59.593Z,5.80
2023-02-05T18:23:29.485Z,5.90
2023-02-05T18:25:58.225Z,5.90
2023-02-05T18:28:25.696Z,5.90
2023-02-05T18:31:01.032Z,5.90
2023-02-05T18:33:28.338Z,5.90
2023-02-05T18:36:03.963Z,5.90
2023-02-05T18:38:35.529Z,5.90
2023-02-05T18:41:11.150Z,5.90
2023-02-05T18:43:38.472Z,5.90
2023-02-05T18:46:06.577Z,5.90
2023-02-05T18:48:33.514Z,5.90
2023-02-05T18:51:08.942Z,5.90
2023-02-05T18:53:38.034Z,5.90
2023-02-05T18:56:08.454Z,5.80
2023-02-05T18:58:35.936Z,5.90
2023-02-05T19:01:19.303Z,5.80
2023-02-05T19:03:47.282Z,5.80
2023-02-05T19:06:19.282Z,5.90
2023-02-05T19:08:46.256Z,5.90
2023-02-05T19:11:23.038Z,5.80
2023-02-05T19:14:04.406Z,5.80
2023-02-05T19:16:33.791Z,5.80
2023-02-05T19:19:01.566Z,5.70
2023-02-05T19:21:32.115Z,5.80
2023-02-05T19:24:05.541Z,5.70
2023-02-05T19:26:34.260Z,5.70
2023-02-05T19:29:04.830Z,5.70
2023-02-05T19:31:34.117Z,5.70
2023-02-05T19:34:01.889Z,5.80
2023-02-05T19:36:29.555Z,5.80
2023-02-05T19:38:57.041Z,5.80
2023-02-05T19:41:26.972Z,5.70
2023-02-05T19:43:59.581Z,5.70
2023-02-05T19:46:32.634Z,5.70
2023-02-05T19:49:02.212Z,5.60
2023-02-05T19:51:29.305Z,5.60
2023-02-05T19:53:58.310Z,5.60
2023-02-05T19:56:26.168Z,5.70
2023-02-05T19:58:55.900Z,5.70
2023-02-05T20:01:30.471Z,5.70
2023-02-05T20:04:00.541Z,5.60
2023-02-05T20:06:29.508Z,5.60
2023-02-05T20:08:56.702Z,5.60
2023-02-05T20:11:23.753Z,5.60
2023-02-05T20:13:50.708Z,5.70
2023-02-05T20:16:21.304Z,5.70
2023-02-05T20:18:56.877Z,5.80
2023-02-05T20:21:24.973Z,5.80
2023-02-05T20:23:52.627Z,5.80
2023-02-05T20:26:22.194Z,5.70
2023-02-05T20:29:11.492Z,5.50
2023-02-05T20:31:43.572Z,5.30
2023-02-05T20:34:18.543Z,5.30
2023-02-05T20:37:04.821Z,5.40
2023-02-05T20:39:34.572Z,5.40
2023-02-05T20:42:02.427Z,5.50
2023-02-05T20:44:32.043Z,5.50
2023-02-05T20:46:58.990Z,5.40
2023-02-05T20:49:26.252Z,5.30
2023-02-05T20:51:54.189Z,5.30
2023-02-05T20:54:22.683Z,5.10
2023-02-05T20:56:57.193Z,5.00
2023-02-05T20:59:24.838Z,4.90
2023-02-05T21:01:52.083Z,4.80
2023-02-05T21:04:20.449Z,4.80
2023-02-05T21:06:48.299Z,4.80
2023-02-05T21:09:16.743Z,4.80
2023-02-05T21:11:43.743Z,4.80
2023-02-05T21:14:10.773Z,4.80
2023-02-05T21:16:38.414Z,4.80
2023-02-05T21:19:07.270Z,4.80
2023-02-05T21:21:36.545Z,4.80
2023-02-05T21:24:06.746Z,4.80
2023-02-05T21:26:36.397Z,4.90
2023-02-05T21:29:12.707Z,4.90
2023-02-05T21:31:46.474Z,5.00
2023-02-05T21:34:16.526Z,5.00
2023-02-05T21:36:44.226Z,4.90
2023-02-05T21:39:16.261Z,4.90
2023-02-05T21:41:47.652Z,4.80
2023-02-05T21:44:14.985Z,4.90
2023-02-05T21:46:42.147Z,4.80
2023-02-05T21:49:10.557Z,4.70
2023-02-05T21:51:37.778Z,4.70
2023-02-05T21:54:06.537Z,4.70
2023-02-05T21:56:39.414Z,4.70
2023-02-05T21:59:06.722Z,4.70
2023-02-05T22:01:35.312Z,4.70
2023-02-05T22:04:05.403Z,4.50
2023-02-05T22:06:34.914Z,4.50
2023-02-05T22:09:04.424Z,4.40
2023-02-05T22:11:31.513Z,4.40
2023-02-05T22:13:59.757Z,4.40
2023-02-05T22:16:32.108Z,4.30
2023-02-05T22:19:00.305Z,4.30
2023-02-05T22:21:28.724Z,4.30
2023-02-05T22:23:58.557Z,4.30
2023-02-05T22:26:31.180Z,4.30
2023-02-05T22:28:59.414Z,4.40
2023-02-05T22:31:27.856Z,4.40
2023-02-05T22:33:55.157Z,4.50
2023-02-05T22:36:24.816Z,4.60
2023-02-05T22:38:52.748Z,4.70
2023-02-05T22:41:25.540Z,4.80
2023-02-05T22:43:53.464Z,4.80
2023-02-05T22:46:23.273Z,4.90
2023-02-05T22:48:51.695Z,5.00
2023-02-05T22:51:24.104Z,5.10
2023-02-05T22:53:53.031Z,5.00
2023-02-05T22:56:20.091Z,5.00
2023-02-05T22:58:48.261Z,4.90
2023-02-05T23:01:19.859Z,4.70
2023-02-05T23:03:50.799Z,4.60
2023-02-05T23:06:26.608Z,4.60
2023-02-05T23:08:57.022Z,4.60
2023-02-05T23:11:25.436Z,4.50
2023-02-05T23:13:52.648Z,4.30
2023-02-05T23:16:22.888Z,4.30
2023-02-05T23:18:51.727Z,4.30
2023-02-05T23:21:23.249Z,4.30
2023-02-05T23:23:50.965Z,4.30
2023-02-05T23:26:23.898Z,4.20
2023-02-05T23:28:52.068Z,4.30
2023-02-05T23:31:19.734Z,4.40
2023-02-05T23:33:46.840Z,4.40
2023-02-05T23:36:14.155Z,4.50
2023-02-05T23:38:41.147Z,4.50
2023-02-05T23:41:08.833Z,4.50
2023-02-05T23:43:37.135Z,4.50
2023-02-05T23:46:05.908Z,4.40
2023-02-05T23:48:33.352Z,4.40
2023-02-05T23:51:00.430Z,4.20
2023-02-05T23:53:27.453Z,4.20
2023-02-05T23:55:54.631Z,4.20
2023-02-05T23:58:25.935Z,4.10
